Time;durP1;ratioP1;P1;durP2;ratioP2;P2;SDS_P1;SDS_P2;PMS_P1;PMS_P2;Temp;Humidity;BMP_temperature;BMP_pressure;BME280_temperature;BME280_humidity;BME280_pressure;Samples;Min_cycle;Max_cycle;Signal;HPM_P1;HPM_P2
2023/01/31 00:00:56;;;;;;;11.38;1.95;;;;;;;12.05;43.96;102331.50;5011321;28;20479;-66
2023/01/31 00:03:22;;;;;;;10.63;2.30;;;;;;;12.00;43.19;102330.97;5012449;28;20041;-66
2023/01/31 00:05:47;;;;;;;16.33;2.38;;;;;;;11.95;43.33;102319.63;5011245;28;20410;-66
2023/01/31 00:08:14;;;;;;;11.05;2.65;;;;;;;11.89;43.37;102325.41;5011516;28;20041;-67
2023/01/31 00:10:40;;;;;;;8.52;2.10;;;;;;;11.86;44.16;102328.31;5012808;28;20033;-66
2023/01/31 00:13:05;;;;;;;16.63;3.13;;;;;;;11.84;43.02;102332.91;5010874;28;20037;-66
2023/01/31 00:15:30;;;;;;;19.38;3.33;;;;;;;11.82;43.56;102332.16;5012667;28;20493;-66
2023/01/31 00:17:56;;;;;;;5.80;2.03;;;;;;;11.80;44.14;102328.72;5011104;28;20048;-66
2023/01/31 00:20:21;;;;;;;11.15;1.98;;;;;;;11.79;43.78;102334.16;4991983;28;20511;-67
2023/01/31 00:22:47;;;;;;;8.77;1.85;;;;;;;11.78;43.99;102336.00;5011495;28;20037;-66
2023/01/31 00:25:12;;;;;;;9.05;2.83;;;;;;;11.77;44.36;102333.41;5010765;28;20042;-66
2023/01/31 00:27:37;;;;;;;5.50;1.92;;;;;;;11.76;44.29;102329.88;5011216;28;20469;-66
2023/01/31 00:30:03;;;;;;;9.30;2.50;;;;;;;11.75;43.56;102322.78;5006215;28;20528;-66
2023/01/31 00:32:29;;;;;;;10.30;2.28;;;;;;;11.74;43.79;102326.44;5005947;28;20046;-67
2023/01/31 00:34:54;;;;;;;12.40;2.03;;;;;;;11.72;43.40;102320.31;5009494;28;20029;-66
2023/01/31 00:37:20;;;;;;;10.57;2.42;;;;;;;11.72;43.85;102338.22;5012706;28;20165;-66
2023/01/31 00:39:46;;;;;;;18.40;2.33;;;;;;;11.71;44.00;102334.69;5011112;28;20073;-66
2023/01/31 00:42:12;;;;;;;14.38;2.72;;;;;;;11.69;43.98;102325.88;5011874;28;20057;-66
2023/01/31 00:44:37;;;;;;;15.02;2.50;;;;;;;11.69;44.28;102336.63;4993051;28;20030;-67
2023/01/31 00:47:02;;;;;;;10.75;2.35;;;;;;;11.66;43.72;102334.09;5009411;28;20033;-66
2023/01/31 00:49:28;;;;;;;14.48;2.25;;;;;;;11.62;44.40;102324.50;5010026;28;20606;-67
2023/01/31 00:51:54;;;;;;;8.40;2.55;;;;;;;11.66;43.88;102334.09;5008998;28;20044;-67
2023/01/31 00:54:19;;;;;;;17.42;2.80;;;;;;;11.66;43.79;102328.72;5010180;28;20041;-66
2023/01/31 00:56:44;;;;;;;15.13;2.80;;;;;;;11.66;43.80;102318.84;5011572;28;20029;-66
2023/01/31 00:59:10;;;;;;;17.08;4.47;;;;;;;11.67;43.87;102327.75;5012280;28;20061;-66
2023/01/31 01:01:36;;;;;;;17.13;2.45;;;;;;;11.65;44.15;102322.50;5014429;28;20041;-66
2023/01/31 01:04:01;;;;;;;10.10;2.05;;;;;;;11.65;44.36;102327.84;5012631;28;20126;-67
2023/01/31 01:06:27;;;;;;;12.07;2.42;;;;;;;11.63;44.24;102323.56;5011455;28;20125;-66
2023/01/31 01:08:54;;;;;;;6.20;2.50;;;;;;;11.61;44.30;102333.53;4994943;28;20038;-66
2023/01/31 01:11:25;;;;;;;13.48;3.72;;;;;;;11.63;44.04;102339.66;5011115;28;20061;-66
2023/01/31 01:13:51;;;;;;;7.53;2.95;;;;;;;11.63;43.92;102324.41;5010844;28;20030;-66
2023/01/31 01:16:23;;;;;;;12.52;2.53;;;;;;;11.62;44.43;102322.69;5011461;28;20022;-66
2023/01/31 01:18:49;;;;;;;7.20;2.55;;;;;;;11.56;44.15;102316.84;4994471;28;20042;-66
2023/01/31 01:21:18;;;;;;;13.68;3.33;;;;;;;11.60;44.51;102335.34;5012276;28;20065;-66
2023/01/31 01:23:43;;;;;;;15.05;2.80;;;;;;;11.60;44.19;102335.34;5011247;28;20146;-66
2023/01/31 01:26:14;;;;;;;9.35;2.60;;;;;;;11.59;44.38;102332.75;5014257;28;20101;-66
2023/01/31 01:28:39;;;;;;;11.05;2.97;;;;;;;11.61;44.17;102334.38;5015408;28;20482;-66
2023/01/31 01:31:06;;;;;;;16.00;3.80;;;;;;;11.62;44.92;102337.91;4998108;28;20046;-66
2023/01/31 01:33:31;;;;;;;11.95;2.83;;;;;;;11.62;44.51;102324.50;5014462;28;20046;-66
2023/01/31 01:36:04;;;;;;;6.55;2.10;;;;;;;11.63;44.51;102316.38;5014440;28;20383;-67
2023/01/31 01:38:30;;;;;;;24.90;3.20;;;;;;;11.62;44.61;102319.13;4997798;28;20030;-66
2023/01/31 01:40:55;;;;;;;9.38;2.58;;;;;;;11.62;44.07;102322.69;5013952;28;20041;-66
2023/01/31 01:43:48;;;;;;;12.23;3.28;;;;;;;11.59;44.16;102308.59;5014582;28;20441;-67
2023/01/31 01:46:34;;;;;;;7.55;2.85;;;;;;;11.60;44.37;102323.75;5014176;28;20041;-66
2023/01/31 01:49:19;;;;;;;11.80;2.58;;;;;;;11.57;44.29;102302.47;5003984;28;20046;-66
2023/01/31 01:51:47;;;;;;;7.07;2.53;;;;;;;11.56;44.56;102300.75;4995576;28;20042;-66
2023/01/31 01:54:18;;;;;;;13.50;3.42;;;;;;;11.54;44.52;102314.25;4995590;28;20039;-66
2023/01/31 01:56:47;;;;;;;10.23;3.38;;;;;;;11.47;44.31;102301.34;4978980;28;20040;-66
2023/01/31 01:59:19;;;;;;;10.93;3.00;;;;;;;11.49;44.41;102299.44;4996458;28;20411;-67
2023/01/31 02:01:46;;;;;;;12.45;3.25;;;;;;;11.39;45.14;102298.31;4995527;28;20480;-66
2023/01/31 02:04:18;;;;;;;12.32;2.92;;;;;;;11.40;45.32;102300.00;4995361;28;20179;-66
2023/01/31 02:06:45;;;;;;;6.37;2.73;;;;;;;11.42;44.58;102303.44;4995298;28;20058;-66
2023/01/31 02:09:18;;;;;;;14.00;2.78;;;;;;;11.40;45.35;102298.19;4995330;28;20030;-66
2023/01/31 02:11:44;;;;;;;10.20;2.60;;;;;;;11.40;45.09;102300.00;4995433;28;20026;-67
2023/01/31 02:14:10;;;;;;;8.30;2.30;;;;;;;11.36;44.25;102293.97;4996022;28;20490;-66
2023/01/31 02:16:35;;;;;;;10.40;2.83;;;;;;;11.32;44.73;102291.59;5014824;28;20053;-66
2023/01/31 02:19:05;;;;;;;17.23;2.63;;;;;;;11.29;44.78;102291.78;5015611;28;20487;-66
2023/01/31 02:21:51;;;;;;;15.35;2.83;;;;;;;11.29;44.72;102289.09;4998033;28;20522;-67
2023/01/31 02:24:55;;;;;;;16.42;2.53;;;;;;;11.25;44.84;102284.91;5014283;28;20041;-67
2023/01/31 02:27:38;;;;;;;14.18;2.95;;;;;;;11.24;45.16;102297.47;4996655;28;20100;-66
2023/01/31 02:30:15;;;;;;;8.15;2.60;;;;;;;11.24;44.99;102293.91;5015355;28;20121;-66
2023/01/31 02:32:53;;;;;;;9.70;2.60;;;;;;;11.25;45.01;102296.47;5015527;28;20061;-66
2023/01/31 02:35:31;;;;;;;11.18;2.45;;;;;;;11.27;44.75;102299.09;5014644;28;20036;-66
2023/01/31 02:38:15;;;;;;;11.60;3.20;;;;;;;11.27;45.33;102310.69;5014022;28;20033;-66
2023/01/31 02:41:16;;;;;;;16.70;3.60;;;;;;;11.26;45.02;102313.44;5015317;28;20478;-66
2023/01/31 02:46:59;;;;;;;9.57;3.58;;;;;;;11.26;45.17;102308.94;5014311;28;20108;-66
2023/01/31 02:49:41;;;;;;;12.82;2.83;;;;;;;11.22;45.20;102307.44;5014018;28;20041;-66
2023/01/31 02:52:24;;;;;;;25.45;3.80;;;;;;;11.28;45.10;102303.50;4997859;28;20038;-66
2023/01/31 02:57:36;;;;;;;14.82;4.47;;;;;;;11.28;45.67;102315.06;4994328;28;20038;-66
2023/01/31 03:00:02;;;;;;;7.13;3.00;;;;;;;11.28;45.41;102312.38;4994263;28;20046;-66
2023/01/31 03:02:28;;;;;;;14.20;4.47;;;;;;;11.32;45.35;102308.56;4996235;28;20036;-67
2023/01/31 03:04:53;;;;;;;9.73;2.92;;;;;;;11.34;44.92;102311.13;4996455;28;20066;-66
2023/01/31 03:07:25;;;;;;;15.23;3.78;;;;;;;11.31;45.30;102285.38;4995204;28;20085;-66
2023/01/31 03:10:09;;;;;;;15.15;3.17;;;;;;;11.34;45.71;102305.75;5000018;28;20030;-66
2023/01/31 03:13:09;;;;;;;18.42;2.95;;;;;;;11.34;45.43;102300.41;5014807;28;20451;-66
2023/01/31 03:18:29;;;;;;;12.45;3.63;;;;;;;11.34;45.24;102295.03;5013602;28;20411;-66
2023/01/31 03:21:18;;;;;;;9.50;2.92;;;;;;;11.32;45.56;102279.03;5013041;28;20030;-66
2023/01/31 03:23:47;;;;;;;13.23;3.38;;;;;;;11.30;45.51;102282.78;5013169;28;20030;-66
2023/01/31 03:26:14;;;;;;;15.80;2.75;;;;;;;11.30;45.52;102269.38;5012451;28;20042;-66
2023/01/31 03:28:41;;;;;;;14.52;3.63;;;;;;;11.29;45.35;102264.97;4997337;28;20022;-66
2023/01/31 03:31:10;;;;;;;16.88;3.58;;;;;;;11.28;45.21;102268.63;4997099;28;20095;-66
2023/01/31 03:33:38;;;;;;;14.18;4.60;;;;;;;11.27;45.38;102262.41;5005261;28;20041;-66
2023/01/31 03:36:28;;;;;;;12.85;3.53;;;;;;;11.28;45.74;102264.09;5012940;28;20026;-66
2023/01/31 03:39:00;;;;;;;9.63;3.50;;;;;;;11.27;45.53;102274.94;5014414;28;20037;-66
2023/01/31 03:41:53;;;;;;;18.63;4.70;;;;;;;11.27;45.66;102273.13;4993563;28;20046;-66
2023/01/31 03:45:04;;;;;;;19.98;4.32;;;;;;;11.27;45.62;102261.53;4987862;28;20439;-66
2023/01/31 03:47:33;;;;;;;12.73;3.45;;;;;;;11.26;44.90;102260.66;4989194;28;20039;-66
2023/01/31 03:50:04;;;;;;;11.57;4.65;;;;;;;11.29;45.55;102254.22;4995726;28;20037;-66
2023/01/31 03:52:34;;;;;;;16.02;4.10;;;;;;;11.30;45.96;102255.97;5013779;28;20017;-65
2023/01/31 03:55:07;;;;;;;12.00;3.65;;;;;;;11.31;45.61;102257.66;4996419;28;20113;-67
2023/01/31 03:57:35;;;;;;;18.70;4.63;;;;;;;11.29;45.40;102260.47;5012956;28;20105;-66
2023/01/31 04:00:04;;;;;;;18.13;4.15;;;;;;;11.30;45.39;102255.97;4996520;28;20034;-66
2023/01/31 04:02:33;;;;;;;16.42;3.78;;;;;;;11.28;45.58;102260.56;5014563;28;20026;-66
2023/01/31 04:05:07;;;;;;;13.30;3.88;;;;;;;11.27;45.47;102250.81;5014163;28;20448;-65
2023/01/31 04:07:32;;;;;;;;;;;;;;;11.26;45.79;102267.84;4997007;28;20033;-66
2023/01/31 04:09:57;;;;;;;14.93;3.75;;;;;;;11.24;45.87;102251.84;5013976;28;19920;-66
2023/01/31 04:12:23;;;;;;;12.13;4.35;;;;;;;11.22;45.79;102264.53;4980549;28;20143;-67
2023/01/31 04:14:48;;;;;;;15.07;4.22;;;;;;;11.21;45.16;102268.16;5014035;28;20441;-66
2023/01/31 04:17:13;;;;;;;19.83;5.00;;;;;;;11.22;45.95;102261.84;5013040;28;20097;-66
2023/01/31 04:19:39;;;;;;;10.52;4.25;;;;;;;11.24;45.83;102272.44;5014429;28;20061;-67
2023/01/31 04:22:04;;;;;;;14.45;4.43;;;;;;;11.20;44.98;102271.78;4999726;28;20045;-66
2023/01/31 04:24:30;;;;;;;16.83;5.18;;;;;;;11.16;45.88;102264.03;4993779;28;20043;-66
2023/01/31 04:26:55;;;;;;;15.60;4.55;;;;;;;11.15;45.73;102256.94;4992719;28;20043;-66
2023/01/31 04:29:20;;;;;;;12.60;3.65;;;;;;;11.14;45.85;102264.13;4996196;28;20053;-65
2023/01/31 04:31:46;;;;;;;22.58;4.10;;;;;;;11.14;46.09;102260.59;5006281;28;20042;-65
2023/01/31 04:34:11;;;;;;;17.52;4.80;;;;;;;11.17;46.07;102252.34;4996827;28;20116;-66
2023/01/31 04:36:37;;;;;;;15.57;4.38;;;;;;;11.17;45.77;102247.00;5013294;28;20037;-67
2023/01/31 04:39:03;;;;;;;16.50;5.22;;;;;;;11.14;45.72;102247.19;5013273;28;20045;-65
2023/01/31 04:41:28;;;;;;;25.45;5.68;;;;;;;11.13;45.94;102238.28;5011841;28;20084;-66
2023/01/31 04:43:54;;;;;;;16.63;4.53;;;;;;;11.16;45.67;102247.94;4997880;28;20108;-66
2023/01/31 04:46:19;;;;;;;16.40;4.32;;;;;;;11.15;46.35;102251.56;5010596;28;20482;-66
2023/01/31 04:48:44;;;;;;;20.30;5.10;;;;;;;11.15;46.26;102251.56;4995814;28;20114;-66
2023/01/31 04:51:10;;;;;;;13.05;4.63;;;;;;;11.16;45.45;102258.66;5011896;28;20038;-67
2023/01/31 04:53:35;;;;;;;21.45;4.68;;;;;;;11.18;45.50;102254.94;4988184;28;20054;-66
2023/01/31 04:56:02;;;;;;;13.80;4.40;;;;;;;11.16;45.69;102247.94;4992439;28;20034;-67
2023/01/31 04:58:28;;;;;;;13.52;4.90;;;;;;;11.17;45.19;102247.00;4992768;28;20030;-66
2023/01/31 05:00:53;;;;;;;22.85;5.00;;;;;;;11.17;45.94;102249.69;5000029;28;20049;-66
2023/01/31 05:03:19;;;;;;;12.27;4.00;;;;;;;11.16;45.83;102242.59;5016567;28;20042;-65
2023/01/31 05:05:47;;;;;;;20.17;4.05;;;;;;;11.13;46.05;102240.09;4999155;28;20034;-66
2023/01/31 05:08:12;;;;;;;16.33;4.97;;;;;;;11.09;46.36;102221.50;5018026;28;20037;-66
2023/01/31 05:10:38;;;;;;;17.95;5.18;;;;;;;11.15;46.16;102228.31;5016415;28;20048;-65
2023/01/31 05:13:03;;;;;;;19.80;4.00;;;;;;;11.16;46.02;102230.03;5015321;28;20529;-66
2023/01/31 05:15:28;;;;;;;16.35;4.53;;;;;;;11.15;46.01;102230.13;5015917;28;20085;-67
2023/01/31 05:18:01;;;;;;;18.73;4.00;;;;;;;11.16;46.06;102226.50;5015139;28;20495;-66
2023/01/31 05:20:28;;;;;;;16.55;4.70;;;;;;;11.17;45.96;102220.19;5015424;28;20459;-67
2023/01/31 05:22:54;;;;;;;12.57;4.38;;;;;;;11.16;46.28;102215.75;5015262;28;20053;-66
2023/01/31 05:25:19;;;;;;;12.02;4.65;;;;;;;11.15;46.13;102205.97;5002367;28;20090;-66
2023/01/31 05:27:44;;;;;;;20.27;4.15;;;;;;;11.14;46.04;102201.59;5011089;28;20111;-66
2023/01/31 05:30:10;;;;;;;14.68;4.43;;;;;;;11.13;46.49;102197.19;5015432;28;20514;-66
2023/01/31 05:32:36;;;;;;;13.20;3.60;;;;;;;11.12;46.54;102188.28;5007564;28;20037;-67
2023/01/31 05:35:01;;;;;;;17.70;3.20;;;;;;;11.08;46.08;102182.25;4995599;28;20418;-66
2023/01/31 05:37:27;;;;;;;21.65;4.18;;;;;;;11.10;45.78;102193.75;4963717;28;20022;-65
2023/01/31 05:39:52;;;;;;;15.45;3.83;;;;;;;11.10;46.22;102180.34;4995490;28;20046;-66
2023/01/31 05:42:17;;;;;;;16.92;4.05;;;;;;;11.10;46.00;102176.78;4996124;28;20089;-66
2023/01/31 05:44:43;;;;;;;16.13;3.65;;;;;;;11.11;46.04;102171.31;4978883;28;20041;-66
2023/01/31 05:47:08;;;;;;;15.65;3.17;;;;;;;11.10;46.45;102174.97;4996139;28;20042;-66
2023/01/31 05:49:34;;;;;;;25.85;3.83;;;;;;;11.09;46.04;102172.38;4996503;28;20443;-66
2023/01/31 05:52:02;;;;;;;18.15;3.45;;;;;;;11.08;46.38;102168.84;4996238;28;20037;-66
2023/01/31 05:54:28;;;;;;;21.00;3.90;;;;;;;11.07;45.75;102158.22;4991613;28;20407;-66
2023/01/31 05:56:53;;;;;;;5.65;2.70;;;;;;;11.04;46.38;102159.28;4996013;28;20033;-65
2023/01/31 05:59:18;;;;;;;14.88;3.10;;;;;;;11.03;46.33;102162.91;4995992;28;20034;-66
2023/01/31 06:01:44;;;;;;;11.80;2.63;;;;;;;11.04;46.29;102169.16;5011582;28;20113;-66
2023/01/31 06:04:09;;;;;;;10.52;2.47;;;;;;;10.99;46.67;102158.72;4996100;28;20060;-67
2023/01/31 06:06:35;;;;;;;13.88;2.60;;;;;;;11.06;46.34;102180.63;5011293;28;20517;-66
2023/01/31 06:09:00;;;;;;;9.10;2.78;;;;;;;11.08;46.16;102186.78;4995958;28;20039;-65
2023/01/31 06:11:25;;;;;;;17.40;2.75;;;;;;;11.07;46.63;102191.25;5009864;28;20031;-65
2023/01/31 06:13:51;;;;;;;9.23;2.95;;;;;;;11.08;46.15;102182.25;4995577;28;20402;-65
2023/01/31 06:16:16;;;;;;;14.95;2.67;;;;;;;11.10;46.34;102183.03;4997326;28;20474;-66
2023/01/31 06:18:42;;;;;;;10.38;2.75;;;;;;;11.11;46.09;102175.81;4995872;28;20035;-67
2023/01/31 06:21:07;;;;;;;17.00;2.60;;;;;;;11.05;45.96;102171.72;4995694;28;20101;-66
2023/01/31 06:23:33;;;;;;;11.48;2.75;;;;;;;11.13;46.58;102183.78;4996852;28;20068;-66
2023/01/31 06:25:59;;;;;;;12.35;2.35;;;;;;;11.14;46.55;102180.16;5014053;28;20026;-66
2023/01/31 06:28:24;;;;;;;13.80;2.85;;;;;;;11.13;46.19;102173.06;5014265;28;20041;-65
2023/01/31 06:30:49;;;;;;;12.65;2.42;;;;;;;11.14;46.33;102177.47;5008341;28;20034;-66
2023/01/31 06:33:15;;;;;;;19.80;3.30;;;;;;;11.15;45.95;102189.91;4998403;28;20055;-66
2023/01/31 06:35:40;;;;;;;9.40;3.58;;;;;;;11.15;45.86;102189.91;5013524;28;20422;-66
2023/01/31 06:38:06;;;;;;;9.63;2.40;;;;;;;11.15;46.71;102192.56;5013722;28;20030;-66
2023/01/31 06:40:32;;;;;;;5.38;1.60;;;;;;;11.15;46.52;102192.56;4997987;28;20112;-65
2023/01/31 06:42:58;;;;;;;9.50;2.83;;;;;;;11.16;46.00;102189.81;4999114;28;20088;-66
2023/01/31 06:45:23;;;;;;;9.15;2.05;;;;;;;11.18;46.59;102195.94;5013426;28;20038;-66
2023/01/31 06:47:48;;;;;;;5.40;1.65;;;;;;;11.20;46.21;102201.19;5010963;28;20037;-66
2023/01/31 06:50:14;;;;;;;13.25;2.42;;;;;;;11.21;46.23;102200.22;5014972;28;20057;-66
2023/01/31 06:52:39;;;;;;;7.40;1.73;;;;;;;11.22;46.64;102193.91;5013999;28;20038;-65
2023/01/31 06:55:05;;;;;;;12.88;2.30;;;;;;;11.27;46.26;102199.84;4993997;28;20052;-65
2023/01/31 06:57:31;;;;;;;6.90;2.78;;;;;;;11.30;46.19;102202.31;4995800;28;20038;-66
2023/01/31 06:59:56;;;;;;;9.55;2.88;;;;;;;11.33;46.45;102202.13;5015898;28;20445;-66
2023/01/31 07:02:22;;;;;;;6.00;1.83;;;;;;;11.35;46.25;102206.44;5013830;28;20042;-68
2023/01/31 07:04:47;;;;;;;6.50;2.20;;;;;;;11.37;46.37;102207.19;5015835;28;20402;-67
2023/01/31 07:07:12;;;;;;;6.60;1.75;;;;;;;11.36;46.17;102204.59;5014893;28;20121;-67
2023/01/31 07:09:38;;;;;;;7.25;1.77;;;;;;;11.43;46.25;102208.59;5015455;28;20083;-67
2023/01/31 07:12:03;;;;;;;8.75;1.77;;;;;;;11.44;46.38;102205.81;5016561;28;20490;-67
2023/01/31 07:14:29;;;;;;;5.28;1.88;;;;;;;11.46;46.64;102209.25;4994614;28;20038;-66
2023/01/31 07:16:54;;;;;;;8.18;2.70;;;;;;;11.48;46.63;102196.59;4996721;28;20477;-67
2023/01/31 07:19:20;;;;;;;5.90;1.83;;;;;;;11.50;45.96;102196.50;4996115;28;20118;-67
2023/01/31 07:21:47;;;;;;;7.85;2.17;;;;;;;11.52;45.92;102194.59;4978651;28;20042;-67
2023/01/31 07:24:16;;;;;;;8.82;2.42;;;;;;;11.54;46.29;102189.97;4994786;28;20038;-67
2023/01/31 07:26:41;;;;;;;12.43;2.33;;;;;;;11.53;46.39;102169.47;4996279;28;20042;-67
2023/01/31 07:29:07;;;;;;;10.30;2.05;;;;;;;11.60;46.75;102178.81;4978581;28;20225;-67
2023/01/31 07:31:33;;;;;;;7.30;1.67;;;;;;;11.59;46.89;102185.16;4996444;28;20089;-67
2023/01/31 07:33:58;;;;;;;12.82;2.20;;;;;;;11.62;46.47;102182.25;5014636;28;20042;-66
2023/01/31 07:36:25;;;;;;;9.13;1.83;;;;;;;11.65;46.16;102187.44;5014470;28;20033;-67
2023/01/31 07:38:55;;;;;;;8.45;1.88;;;;;;;11.68;46.50;102181.84;5015917;28;20117;-67
2023/01/31 07:41:21;;;;;;;7.97;2.03;;;;;;;11.70;46.65;102179.94;5014220;28;20038;-67
2023/01/31 07:43:46;;;;;;;5.93;1.02;;;;;;;11.72;46.07;102178.03;5015814;28;20084;-66
2023/01/31 07:46:11;;;;;;;11.52;1.60;;;;;;;11.75;46.68;102188.59;5016083;28;20494;-67
2023/01/31 07:48:37;;;;;;;7.60;1.55;;;;;;;11.76;45.98;102192.97;5008242;28;20088;-66
2023/01/31 07:51:03;;;;;;;6.65;1.85;;;;;;;11.76;46.09;102174.16;5013917;28;20510;-67
2023/01/31 07:53:30;;;;;;;8.30;1.65;;;;;;;11.78;46.79;102174.09;5014627;28;20398;-66
2023/01/31 07:56:11;;;;;;;3.90;1.15;;;;;;;11.81;46.54;102169.34;5014783;28;20033;-67
2023/01/31 07:58:38;;;;;;;13.82;1.80;;;;;;;11.83;45.98;102178.19;5017168;28;20034;-67
2023/01/31 08:03:48;;;;;;;9.30;1.65;;;;;;;11.91;46.59;102165.09;5016400;28;20049;-67
2023/01/31 08:06:14;;;;;;;9.23;2.15;;;;;;;11.94;46.64;102162.19;5014770;28;20042;-67
2023/01/31 08:08:40;;;;;;;2.53;1.30;;;;;;;11.98;46.62;102157.44;5015826;28;20124;-66
2023/01/31 08:11:06;;;;;;;5.65;1.33;;;;;;;12.05;46.13;102162.31;5014664;28;20037;-68
2023/01/31 08:13:34;;;;;;;8.32;1.45;;;;;;;12.09;46.33;102155.75;5015445;28;20382;-67
2023/01/31 08:16:00;;;;;;;8.13;2.00;;;;;;;12.13;45.74;102159.97;5015249;28;20030;-66
2023/01/31 08:18:25;;;;;;;4.63;1.23;;;;;;;12.20;46.36;102158.53;5016052;28;20061;-67
2023/01/31 08:20:51;;;;;;;11.63;1.75;;;;;;;12.24;45.46;102156.50;5015717;28;20073;-67
2023/01/31 08:23:16;;;;;;;7.85;2.08;;;;;;;12.24;45.53;102162.75;5016307;28;20395;-66
2023/01/31 08:25:41;;;;;;;11.05;2.38;;;;;;;12.27;46.40;102170.59;5016236;28;20117;-67
2023/01/31 08:28:07;;;;;;;10.30;2.10;;;;;;;12.30;46.60;102165.97;5014207;28;20549;-66
2023/01/31 08:30:32;;;;;;;5.78;1.52;;;;;;;12.27;46.42;102165.22;5016176;28;20030;-67
2023/01/31 08:32:58;;;;;;;6.82;1.75;;;;;;;12.28;46.74;102153.50;4998561;28;20041;-67
2023/01/31 08:35:24;;;;;;;11.38;1.67;;;;;;;12.30;46.62;102144.47;5017729;28;20038;-67
2023/01/31 08:37:50;;;;;;;8.60;2.08;;;;;;;12.31;46.48;102143.53;5018966;28;20113;-67
2023/01/31 08:40:15;;;;;;;10.13;1.77;;;;;;;12.32;46.55;102139.84;5020146;28;20072;-67
2023/01/31 08:42:41;;;;;;;5.70;1.67;;;;;;;12.33;46.75;102130.84;5019065;28;20038;-67
2023/01/31 08:45:06;;;;;;;14.43;1.92;;;;;;;12.31;46.50;102127.41;5017550;28;20095;-66
2023/01/31 08:47:32;;;;;;;9.65;1.98;;;;;;;12.33;46.32;102125.47;5016000;28;20037;-67
2023/01/31 08:49:58;;;;;;;11.73;2.90;;;;;;;12.32;46.02;102129.09;5015708;28;20100;-67
2023/01/31 08:52:23;;;;;;;11.25;1.83;;;;;;;12.38;46.66;102139.41;5016955;28;20371;-67
2023/01/31 08:54:48;;;;;;;9.68;1.73;;;;;;;12.39;46.09;102141.16;5015314;28;20041;-67
2023/01/31 08:57:14;;;;;;;7.53;2.13;;;;;;;12.38;46.37;102140.28;5016799;28;20117;-67
2023/01/31 08:59:39;;;;;;;5.57;1.63;;;;;;;12.44;46.98;102128.25;4999699;28;20441;-67
2023/01/31 09:02:05;;;;;;;9.93;1.73;;;;;;;12.50;45.94;102117.94;5016555;28;20034;-66
2023/01/31 09:04:30;;;;;;;10.90;2.15;;;;;;;12.50;47.25;102106.31;5015776;28;20467;-67
2023/01/31 09:06:56;;;;;;;8.60;2.10;;;;;;;12.51;46.85;102094.56;4998574;28;20030;-66
2023/01/31 09:09:21;;;;;;;9.75;2.33;;;;;;;12.57;46.47;102096.81;5015037;28;20103;-66
2023/01/31 09:11:47;;;;;;;8.85;1.67;;;;;;;12.63;46.31;102107.13;5016374;28;20037;-67
2023/01/31 09:14:12;;;;;;;12.43;2.97;;;;;;;12.66;46.90;102113.16;5015118;28;20040;-67
2023/01/31 09:16:37;;;;;;;10.73;2.75;;;;;;;12.67;47.15;102108.66;5017637;28;20087;-67
2023/01/31 09:19:03;;;;;;;9.85;2.17;;;;;;;12.72;47.34;102110.03;5017057;28;20052;-67
2023/01/31 09:21:28;;;;;;;10.18;2.25;;;;;;;12.73;46.17;102097.44;5016090;28;20518;-67
2023/01/31 09:23:58;;;;;;;5.63;2.05;;;;;;;12.76;46.13;102098.06;5014768;28;20478;-66
2023/01/31 09:26:24;;;;;;;7.13;2.30;;;;;;;12.82;46.96;102094.06;5012460;28;20039;-66
2023/01/31 09:28:50;;;;;;;19.95;2.85;;;;;;;12.84;47.33;102100.22;4998630;28;20030;-67
2023/01/31 09:31:18;;;;;;;5.80;1.83;;;;;;;12.87;46.66;102097.28;4996658;28;20105;-67
2023/01/31 09:33:43;;;;;;;12.88;2.00;;;;;;;12.88;47.30;102090.94;5015786;28;20033;-66
2023/01/31 09:36:17;;;;;;;8.98;2.35;;;;;;;12.95;46.34;102110.16;5013395;28;20120;-67
2023/01/31 09:38:43;;;;;;;10.50;2.30;;;;;;;12.97;47.30;102101.03;4978830;28;20027;-67
2023/01/31 09:41:36;;;;;;;5.95;2.72;;;;;;;13.04;46.04;102086.13;4996190;28;20387;-67
2023/01/31 09:44:19;;;;;;;8.27;1.90;;;;;;;13.13;47.35;102090.00;5002353;28;20077;-66
2023/01/31 09:46:54;;;;;;;9.52;2.47;;;;;;;13.18;46.01;102086.00;5014693;28;20022;-66
2023/01/31 09:49:27;;;;;;;11.35;2.45;;;;;;;13.18;47.57;102077.91;4998063;28;20064;-66
2023/01/31 09:51:56;;;;;;;16.08;2.70;;;;;;;13.24;46.57;102077.47;4998314;28;20041;-67
2023/01/31 09:54:27;;;;;;;9.10;3.17;;;;;;;13.18;47.01;102077.91;5014325;28;20073;-66
2023/01/31 09:57:07;;;;;;;14.50;3.30;;;;;;;13.10;47.31;102080.31;5015383;28;20034;-66
2023/01/31 10:00:11;;;;;;;12.77;2.08;;;;;;;13.06;46.43;102078.81;5015475;28;20026;-67
2023/01/31 10:03:03;;;;;;;9.43;2.72;;;;;;;13.02;47.51;102088.09;5011198;28;20033;-67
2023/01/31 10:05:31;;;;;;;6.60;2.58;;;;;;;13.01;47.64;102078.28;5014077;28;20109;-66
2023/01/31 10:08:25;;;;;;;11.88;2.85;;;;;;;13.04;47.33;102064.59;5014984;28;20030;-67
2023/01/31 10:10:51;;;;;;;9.32;2.60;;;;;;;13.09;46.61;102067.00;5015130;28;20018;-67
2023/01/31 10:13:43;;;;;;;6.57;2.35;;;;;;;13.19;46.13;102058.13;5014353;28;20029;-66
2023/01/31 10:16:16;;;;;;;9.18;2.47;;;;;;;13.31;46.86;102049.13;5013888;28;20029;-68
2023/01/31 10:18:45;;;;;;;4.65;2.28;;;;;;;13.55;47.32;102037.44;5013763;28;20030;-67
2023/01/31 10:21:28;;;;;;;11.00;3.03;;;;;;;14.10;46.29;102031.28;4997342;28;20034;-66
2023/01/31 10:23:58;;;;;;;11.57;3.00;;;;;;;14.12;46.50;102027.47;5001046;28;20122;-68
2023/01/31 10:26:33;;;;;;;5.88;2.15;;;;;;;14.17;46.49;102030.66;4991945;28;20038;-66
2023/01/31 10:29:01;;;;;;;7.00;2.83;;;;;;;14.24;46.21;102031.88;5010522;28;20035;-67
2023/01/31 10:31:33;;;;;;;6.15;2.55;;;;;;;14.17;47.02;102008.25;4995575;28;20403;-69
2023/01/31 10:34:22;;;;;;;10.63;2.47;;;;;;;14.24;45.94;101998.66;4993475;28;20041;-67
2023/01/31 10:37:12;;;;;;;7.75;3.00;;;;;;;14.57;46.96;102006.75;4994184;28;20118;-68
2023/01/31 10:39:43;;;;;;;11.93;2.72;;;;;;;14.61;46.25;102018.13;4994448;28;20053;-67
2023/01/31 10:42:34;;;;;;;8.07;2.53;;;;;;;14.60;47.29;102016.44;5014873;28;20034;-68
2023/01/31 10:45:01;;;;;;;4.97;2.85;;;;;;;14.51;46.46;102008.13;5013817;28;20487;-69
2023/01/31 10:47:53;;;;;;;6.65;2.05;;;;;;;14.41;46.23;102000.88;5012961;28;20445;-67
2023/01/31 10:50:39;;;;;;;9.65;2.42;;;;;;;14.38;47.42;101999.31;5014650;28;20040;-67
2023/01/31 10:53:23;;;;;;;6.05;2.45;;;;;;;14.40;47.54;101989.28;4998625;28;20102;-68
2023/01/31 10:55:51;;;;;;;8.73;3.08;;;;;;;14.55;47.10;101987.13;4993841;28;20077;-67
2023/01/31 10:58:18;;;;;;;8.48;2.72;;;;;;;14.63;46.88;101973.03;4994408;28;20065;-67
2023/01/31 11:00:46;;;;;;;7.57;3.40;;;;;;;14.56;46.31;101973.53;4994898;28;20521;-68
2023/01/31 11:03:12;;;;;;;9.82;3.08;;;;;;;14.58;46.66;101971.56;4994718;28;20379;-67
2023/01/31 11:05:46;;;;;;;15.82;3.55;;;;;;;14.66;47.34;101983.53;4994481;28;20411;-68
2023/01/31 11:08:30;;;;;;;8.05;2.80;;;;;;;14.65;47.47;101971.06;4985056;28;20113;-69
2023/01/31 11:10:57;;;;;;;10.50;3.00;;;;;;;14.58;46.52;101976.97;5014046;28;20030;-68
2023/01/31 11:13:23;;;;;;;8.27;2.60;;;;;;;14.52;46.64;101987.38;5013420;28;20022;-68
2023/01/31 11:15:51;;;;;;;11.23;2.85;;;;;;;14.48;47.90;101986.81;5014153;28;20045;-68
2023/01/31 11:18:34;;;;;;;12.70;3.65;;;;;;;14.40;47.79;101993.81;5012749;28;20498;-68
2023/01/31 11:21:00;;;;;;;10.45;3.22;;;;;;;14.33;47.59;101997.97;5011089;28;20533;-68
2023/01/31 11:23:28;;;;;;;7.13;3.28;;;;;;;14.28;46.82;101984.84;4985384;28;20030;-68
2023/01/31 11:25:54;;;;;;;8.60;3.78;;;;;;;14.27;48.12;101971.47;5009194;28;20029;-68
2023/01/31 11:28:28;;;;;;;11.80;3.75;;;;;;;14.32;47.58;101978.22;5013149;28;20018;-67
2023/01/31 11:30:54;;;;;;;8.10;2.80;;;;;;;14.29;46.66;101975.75;5012679;28;20038;-68
2023/01/31 11:33:47;;;;;;;13.43;3.55;;;;;;;14.27;47.69;101980.41;5012286;28;20030;-68
2023/01/31 11:36:21;;;;;;;13.02;2.50;;;;;;;14.22;48.12;101982.63;5012521;28;20037;-67
2023/01/31 11:38:48;;;;;;;8.35;2.70;;;;;;;14.18;47.66;101966.84;4996838;28;20513;-68
2023/01/31 11:41:36;;;;;;;8.13;2.97;;;;;;;14.21;47.96;101972.81;4996065;28;20057;-68
2023/01/31 11:44:12;;;;;;;15.02;3.03;;;;;;;14.24;46.76;101964.50;5013611;28;20030;-68